sensor_id;sensor_type;location;lat;lon;timestamp;P1;durP1;ratioP1;P2;durP2;ratioP2
65896;SDS011;52677;50.898;10.854;2022-10-17T00:01:20;11.93;;;6.47;;
65896;SDS011;52677;50.898;10.854;2022-10-17T00:03:20;11.13;;;6.65;;
65896;SDS011;52677;50.898;10.854;2022-10-17T00:05:21;11.30;;;6.93;;
65896;SDS011;52677;50.898;10.854;2022-10-17T00:07:22;11.20;;;6.50;;
65896;SDS011;52677;50.898;10.854;2022-10-17T00:09:22;9.65;;;5.53;;
65896;SDS011;52677;50.898;10.854;2022-10-17T00:11:22;10.32;;;5.78;;
65896;SDS011;52677;50.898;10.854;2022-10-17T00:13:23;10.27;;;6.43;;
65896;SDS011;52677;50.898;10.854;2022-10-17T00:15:24;11.82;;;6.68;;
65896;SDS011;52677;50.898;10.854;2022-10-17T00:17:24;8.98;;;5.78;;
65896;SDS011;52677;50.898;10.854;2022-10-17T00:19:24;9.45;;;6.00;;
65896;SDS011;52677;50.898;10.854;2022-10-17T00:21:25;11.20;;;6.72;;
65896;SDS011;52677;50.898;10.854;2022-10-17T00:23:25;14.20;;;5.22;;
65896;SDS011;52677;50.898;10.854;2022-10-17T00:25:29;8.35;;;6.10;;
65896;SDS011;52677;50.898;10.854;2022-10-17T00:27:29;10.85;;;6.70;;
65896;SDS011;52677;50.898;10.854;2022-10-17T00:29:29;8.20;;;5.28;;
65896;SDS011;52677;50.898;10.854;2022-10-17T00:31:30;7.85;;;5.40;;
65896;SDS011;52677;50.898;10.854;2022-10-17T00:33:31;7.63;;;5.43;;
65896;SDS011;52677;50.898;10.854;2022-10-17T00:35:32;5.50;;;4.45;;
65896;SDS011;52677;50.898;10.854;2022-10-17T00:37:33;6.97;;;4.63;;
65896;SDS011;52677;50.898;10.854;2022-10-17T00:39:34;6.72;;;4.45;;
65896;SDS011;52677;50.898;10.854;2022-10-17T00:41:34;6.53;;;3.25;;
65896;SDS011;52677;50.898;10.854;2022-10-17T00:45:57;3.17;;;2.50;;
65896;SDS011;52677;50.898;10.854;2022-10-17T00:47:58;2.85;;;2.22;;
65896;SDS011;52677;50.898;10.854;2022-10-17T00:50:03;3.25;;;1.90;;
65896;SDS011;52677;50.898;10.854;2022-10-17T00:52:07;4.82;;;2.13;;
65896;SDS011;52677;50.898;10.854;2022-10-17T00:54:10;2.10;;;1.80;;
65896;SDS011;52677;50.898;10.854;2022-10-17T00:56:13;2.10;;;1.75;;
65896;SDS011;52677;50.898;10.854;2022-10-17T00:58:14;2.88;;;1.73;;
65896;SDS011;52677;50.898;10.854;2022-10-17T01:00:15;2.40;;;1.95;;
65896;SDS011;52677;50.898;10.854;2022-10-17T01:02:17;3.15;;;2.13;;
65896;SDS011;52677;50.898;10.854;2022-10-17T01:04:19;3.28;;;1.83;;
65896;SDS011;52677;50.898;10.854;2022-10-17T01:06:20;2.38;;;1.50;;
65896;SDS011;52677;50.898;10.854;2022-10-17T01:08:20;4.30;;;1.90;;
65896;SDS011;52677;50.898;10.854;2022-10-17T01:10:21;3.03;;;1.98;;
65896;SDS011;52677;50.898;10.854;2022-10-17T01:12:26;2.55;;;1.85;;
65896;SDS011;52677;50.898;10.854;2022-10-17T01:14:39;2.70;;;1.80;;
65896;SDS011;52677;50.898;10.854;2022-10-17T01:21:45;3.53;;;1.48;;
65896;SDS011;52677;50.898;10.854;2022-10-17T01:26:15;2.95;;;1.67;;
65896;SDS011;52677;50.898;10.854;2022-10-17T01:32:53;1.80;;;1.48;;
65896;SDS011;52677;50.898;10.854;2022-10-17T01:35:13;1.60;;;1.50;;
65896;SDS011;52677;50.898;10.854;2022-10-17T01:41:54;1.95;;;1.50;;
65896;SDS011;52677;50.898;10.854;2022-10-17T01:44:13;2.33;;;1.90;;
65896;SDS011;52677;50.898;10.854;2022-10-17T01:46:27;1.70;;;1.42;;
65896;SDS011;52677;50.898;10.854;2022-10-17T01:48:34;4.30;;;1.70;;
65896;SDS011;52677;50.898;10.854;2022-10-17T01:50:37;2.90;;;1.70;;
65896;SDS011;52677;50.898;10.854;2022-10-17T01:52:52;2.45;;;1.58;;
65896;SDS011;52677;50.898;10.854;2022-10-17T01:55:11;2.33;;;1.63;;
65896;SDS011;52677;50.898;10.854;2022-10-17T01:57:24;2.47;;;1.80;;
65896;SDS011;52677;50.898;10.854;2022-10-17T01:59:40;1.95;;;1.55;;
65896;SDS011;52677;50.898;10.854;2022-10-17T02:01:43;2.80;;;1.42;;
65896;SDS011;52677;50.898;10.854;2022-10-17T02:03:45;2.40;;;1.60;;
65896;SDS011;52677;50.898;10.854;2022-10-17T02:05:49;7.05;;;1.70;;
65896;SDS011;52677;50.898;10.854;2022-10-17T02:07:50;2.58;;;1.77;;
65896;SDS011;52677;50.898;10.854;2022-10-17T02:09:50;2.05;;;1.50;;
65896;SDS011;52677;50.898;10.854;2022-10-17T02:12:03;3.15;;;1.70;;
65896;SDS011;52677;50.898;10.854;2022-10-17T02:23:22;2.60;;;1.90;;
65896;SDS011;52677;50.898;10.854;2022-10-17T02:30:28;2.72;;;1.73;;
65896;SDS011;52677;50.898;10.854;2022-10-17T02:32:35;2.33;;;1.63;;
65896;SDS011;52677;50.898;10.854;2022-10-17T02:34:47;2.72;;;1.73;;
65896;SDS011;52677;50.898;10.854;2022-10-17T02:36:53;3.10;;;2.10;;
65896;SDS011;52677;50.898;10.854;2022-10-17T02:38:57;2.95;;;1.52;;
65896;SDS011;52677;50.898;10.854;2022-10-17T02:40:58;2.45;;;1.90;;
65896;SDS011;52677;50.898;10.854;2022-10-17T02:42:59;4.00;;;2.20;;
65896;SDS011;52677;50.898;10.854;2022-10-17T02:45:00;2.90;;;1.92;;
65896;SDS011;52677;50.898;10.854;2022-10-17T02:47:09;3.88;;;1.80;;
65896;SDS011;52677;50.898;10.854;2022-10-17T02:49:30;3.00;;;2.10;;
65896;SDS011;52677;50.898;10.854;2022-10-17T02:54:18;3.17;;;2.10;;
65896;SDS011;52677;50.898;10.854;2022-10-17T02:56:21;2.67;;;2.22;;
65896;SDS011;52677;50.898;10.854;2022-10-17T02:58:27;4.45;;;2.50;;
65896;SDS011;52677;50.898;10.854;2022-10-17T03:00:31;5.60;;;1.65;;
65896;SDS011;52677;50.898;10.854;2022-10-17T03:02:42;3.22;;;2.00;;
65896;SDS011;52677;50.898;10.854;2022-10-17T03:04:45;3.50;;;2.75;;
65896;SDS011;52677;50.898;10.854;2022-10-17T03:06:46;4.55;;;2.30;;
65896;SDS011;52677;50.898;10.854;2022-10-17T03:08:47;2.92;;;2.10;;
65896;SDS011;52677;50.898;10.854;2022-10-17T03:10:48;3.67;;;2.05;;
65896;SDS011;52677;50.898;10.854;2022-10-17T03:12:49;4.07;;;2.60;;
65896;SDS011;52677;50.898;10.854;2022-10-17T03:14:49;4.10;;;2.25;;
65896;SDS011;52677;50.898;10.854;2022-10-17T03:16:49;4.38;;;2.63;;
65896;SDS011;52677;50.898;10.854;2022-10-17T03:18:49;3.90;;;2.30;;
65896;SDS011;52677;50.898;10.854;2022-10-17T03:20:50;4.18;;;2.00;;
65896;SDS011;52677;50.898;10.854;2022-10-17T03:22:50;3.35;;;2.35;;
65896;SDS011;52677;50.898;10.854;2022-10-17T03:24:50;2.95;;;2.28;;
65896;SDS011;52677;50.898;10.854;2022-10-17T03:26:50;2.42;;;1.85;;
65896;SDS011;52677;50.898;10.854;2022-10-17T03:28:51;5.75;;;2.60;;
65896;SDS011;52677;50.898;10.854;2022-10-17T03:30:51;5.15;;;2.60;;
65896;SDS011;52677;50.898;10.854;2022-10-17T03:32:51;3.20;;;2.50;;
65896;SDS011;52677;50.898;10.854;2022-10-17T03:34:52;3.53;;;2.22;;
65896;SDS011;52677;50.898;10.854;2022-10-17T03:36:52;3.70;;;2.40;;
65896;SDS011;52677;50.898;10.854;2022-10-17T03:38:52;4.22;;;2.03;;
65896;SDS011;52677;50.898;10.854;2022-10-17T03:40:54;5.32;;;3.00;;
65896;SDS011;52677;50.898;10.854;2022-10-17T03:42:55;4.00;;;2.50;;
65896;SDS011;52677;50.898;10.854;2022-10-17T03:44:56;4.07;;;2.72;;
65896;SDS011;52677;50.898;10.854;2022-10-17T03:46:56;4.20;;;2.50;;
65896;SDS011;52677;50.898;10.854;2022-10-17T03:48:56;5.55;;;3.25;;
65896;SDS011;52677;50.898;10.854;2022-10-17T03:50:58;4.55;;;2.45;;
65896;SDS011;52677;50.898;10.854;2022-10-17T03:52:59;3.15;;;2.50;;
65896;SDS011;52677;50.898;10.854;2022-10-17T03:54:59;3.35;;;2.30;;
65896;SDS011;52677;50.898;10.854;2022-10-17T03:56:59;3.85;;;2.72;;
65896;SDS011;52677;50.898;10.854;2022-10-17T03:59:00;3.35;;;2.22;;
65896;SDS011;52677;50.898;10.854;2022-10-17T04:01:07;4.80;;;2.50;;
65896;SDS011;52677;50.898;10.854;2022-10-17T04:03:08;8.18;;;3.13;;
65896;SDS011;52677;50.898;10.854;2022-10-17T04:05:08;6.13;;;3.67;;
65896;SDS011;52677;50.898;10.854;2022-10-17T04:07:09;5.47;;;3.38;;
65896;SDS011;52677;50.898;10.854;2022-10-17T04:09:09;4.07;;;3.40;;
65896;SDS011;52677;50.898;10.854;2022-10-17T04:11:11;4.90;;;3.08;;
65896;SDS011;52677;50.898;10.854;2022-10-17T04:13:14;4.80;;;3.38;;
65896;SDS011;52677;50.898;10.854;2022-10-17T04:15:14;4.40;;;3.30;;
65896;SDS011;52677;50.898;10.854;2022-10-17T04:17:14;6.65;;;4.30;;
65896;SDS011;52677;50.898;10.854;2022-10-17T04:19:15;11.15;;;5.30;;
65896;SDS011;52677;50.898;10.854;2022-10-17T04:21:15;12.10;;;6.45;;
65896;SDS011;52677;50.898;10.854;2022-10-17T04:23:17;15.97;;;7.43;;
65896;SDS011;52677;50.898;10.854;2022-10-17T04:25:17;15.57;;;8.07;;
65896;SDS011;52677;50.898;10.854;2022-10-17T04:27:17;13.45;;;6.90;;
65896;SDS011;52677;50.898;10.854;2022-10-17T04:29:18;13.32;;;7.65;;
65896;SDS011;52677;50.898;10.854;2022-10-17T04:31:18;15.68;;;8.10;;
65896;SDS011;52677;50.898;10.854;2022-10-17T04:33:18;12.73;;;7.82;;
65896;SDS011;52677;50.898;10.854;2022-10-17T04:35:19;10.95;;;5.88;;
65896;SDS011;52677;50.898;10.854;2022-10-17T04:37:19;11.88;;;6.15;;
65896;SDS011;52677;50.898;10.854;2022-10-17T04:39:19;6.82;;;3.90;;
65896;SDS011;52677;50.898;10.854;2022-10-17T04:41:20;11.75;;;6.03;;
65896;SDS011;52677;50.898;10.854;2022-10-17T04:43:20;7.80;;;4.57;;
65896;SDS011;52677;50.898;10.854;2022-10-17T04:45:20;7.60;;;3.97;;
65896;SDS011;52677;50.898;10.854;2022-10-17T04:47:20;4.82;;;2.88;;
65896;SDS011;52677;50.898;10.854;2022-10-17T04:49:21;11.00;;;4.32;;
65896;SDS011;52677;50.898;10.854;2022-10-17T04:51:21;5.03;;;3.20;;
65896;SDS011;52677;50.898;10.854;2022-10-17T04:53:22;6.43;;;3.60;;
65896;SDS011;52677;50.898;10.854;2022-10-17T04:55:23;3.92;;;2.67;;
65896;SDS011;52677;50.898;10.854;2022-10-17T04:57:23;3.90;;;3.00;;
65896;SDS011;52677;50.898;10.854;2022-10-17T04:59:23;4.05;;;3.08;;
65896;SDS011;52677;50.898;10.854;2022-10-17T05:01:24;4.18;;;2.80;;
65896;SDS011;52677;50.898;10.854;2022-10-17T05:03:25;3.22;;;2.45;;
65896;SDS011;52677;50.898;10.854;2022-10-17T05:05:26;4.05;;;3.00;;
65896;SDS011;52677;50.898;10.854;2022-10-17T05:07:26;4.18;;;2.60;;
65896;SDS011;52677;50.898;10.854;2022-10-17T05:09:26;3.75;;;2.17;;
65896;SDS011;52677;50.898;10.854;2022-10-17T05:11:28;3.05;;;2.67;;
65896;SDS011;52677;50.898;10.854;2022-10-17T05:13:28;4.32;;;3.05;;
65896;SDS011;52677;50.898;10.854;2022-10-17T05:15:29;3.70;;;2.75;;
65896;SDS011;52677;50.898;10.854;2022-10-17T05:17:29;5.40;;;2.88;;
65896;SDS011;52677;50.898;10.854;2022-10-17T05:19:29;3.05;;;2.53;;
65896;SDS011;52677;50.898;10.854;2022-10-17T05:21:30;6.50;;;2.97;;
65896;SDS011;52677;50.898;10.854;2022-10-17T05:23:30;7.18;;;2.97;;
65896;SDS011;52677;50.898;10.854;2022-10-17T05:25:31;6.20;;;2.70;;
65896;SDS011;52677;50.898;10.854;2022-10-17T05:27:31;5.10;;;3.00;;
65896;SDS011;52677;50.898;10.854;2022-10-17T05:29:32;12.90;;;3.15;;
65896;SDS011;52677;50.898;10.854;2022-10-17T05:31:33;6.97;;;2.90;;
65896;SDS011;52677;50.898;10.854;2022-10-17T05:33:34;4.15;;;2.67;;
65896;SDS011;52677;50.898;10.854;2022-10-17T05:35:34;3.58;;;2.67;;
65896;SDS011;52677;50.898;10.854;2022-10-17T05:37:35;5.30;;;3.00;;
65896;SDS011;52677;50.898;10.854;2022-10-17T05:39:35;5.20;;;3.17;;
65896;SDS011;52677;50.898;10.854;2022-10-17T05:41:35;4.40;;;2.60;;
65896;SDS011;52677;50.898;10.854;2022-10-17T05:43:36;5.47;;;3.53;;
65896;SDS011;52677;50.898;10.854;2022-10-17T05:45:36;4.25;;;2.88;;
65896;SDS011;52677;50.898;10.854;2022-10-17T05:47:36;5.97;;;2.90;;
65896;SDS011;52677;50.898;10.854;2022-10-17T05:49:37;9.32;;;3.42;;
65896;SDS011;52677;50.898;10.854;2022-10-17T05:51:37;6.05;;;3.30;;
65896;SDS011;52677;50.898;10.854;2022-10-17T05:53:38;5.93;;;3.22;;
65896;SDS011;52677;50.898;10.854;2022-10-17T05:55:40;4.50;;;2.75;;
65896;SDS011;52677;50.898;10.854;2022-10-17T05:57:40;4.53;;;2.70;;
65896;SDS011;52677;50.898;10.854;2022-10-17T05:59:40;3.20;;;2.80;;
65896;SDS011;52677;50.898;10.854;2022-10-17T06:01:40;5.55;;;2.95;;
65896;SDS011;52677;50.898;10.854;2022-10-17T06:03:41;4.60;;;3.00;;
65896;SDS011;52677;50.898;10.854;2022-10-17T06:05:41;5.32;;;2.63;;
65896;SDS011;52677;50.898;10.854;2022-10-17T06:07:41;3.67;;;3.13;;
65896;SDS011;52677;50.898;10.854;2022-10-17T06:09:42;5.03;;;3.42;;
65896;SDS011;52677;50.898;10.854;2022-10-17T06:11:42;3.47;;;2.92;;
65896;SDS011;52677;50.898;10.854;2022-10-17T06:13:42;4.13;;;3.05;;
65896;SDS011;52677;50.898;10.854;2022-10-17T06:15:43;5.05;;;3.50;;
65896;SDS011;52677;50.898;10.854;2022-10-17T06:17:44;8.23;;;3.47;;
65896;SDS011;52677;50.898;10.854;2022-10-17T06:19:44;4.88;;;3.08;;
65896;SDS011;52677;50.898;10.854;2022-10-17T06:21:44;5.63;;;3.05;;
65896;SDS011;52677;50.898;10.854;2022-10-17T06:23:44;5.07;;;3.67;;
65896;SDS011;52677;50.898;10.854;2022-10-17T06:25:45;8.05;;;3.72;;
65896;SDS011;52677;50.898;10.854;2022-10-17T06:27:45;4.70;;;2.65;;
65896;SDS011;52677;50.898;10.854;2022-10-17T06:29:46;3.70;;;2.80;;
65896;SDS011;52677;50.898;10.854;2022-10-17T06:31:47;4.88;;;3.08;;
65896;SDS011;52677;50.898;10.854;2022-10-17T06:33:47;5.13;;;3.15;;
65896;SDS011;52677;50.898;10.854;2022-10-17T06:35:51;4.95;;;2.95;;
65896;SDS011;52677;50.898;10.854;2022-10-17T06:37:55;5.70;;;3.03;;
65896;SDS011;52677;50.898;10.854;2022-10-17T06:39:55;4.70;;;3.20;;
65896;SDS011;52677;50.898;10.854;2022-10-17T06:41:55;4.15;;;2.47;;
65896;SDS011;52677;50.898;10.854;2022-10-17T06:43:56;3.63;;;2.70;;
65896;SDS011;52677;50.898;10.854;2022-10-17T06:45:56;5.43;;;3.38;;
65896;SDS011;52677;50.898;10.854;2022-10-17T06:47:56;8.40;;;2.95;;
65896;SDS011;52677;50.898;10.854;2022-10-17T06:49:56;4.80;;;2.88;;
65896;SDS011;52677;50.898;10.854;2022-10-17T06:51:57;3.85;;;2.90;;
65896;SDS011;52677;50.898;10.854;2022-10-17T06:53:57;4.07;;;2.92;;
65896;SDS011;52677;50.898;10.854;2022-10-17T06:55:57;6.65;;;2.97;;
65896;SDS011;52677;50.898;10.854;2022-10-17T06:58:02;4.30;;;2.92;;
65896;SDS011;52677;50.898;10.854;2022-10-17T07:00:03;10.48;;;3.67;;
65896;SDS011;52677;50.898;10.854;2022-10-17T07:04:05;8.13;;;3.80;;
65896;SDS011;52677;50.898;10.854;2022-10-17T07:06:05;5.03;;;3.10;;
65896;SDS011;52677;50.898;10.854;2022-10-17T07:08:06;3.95;;;3.15;;
65896;SDS011;52677;50.898;10.854;2022-10-17T07:10:07;9.50;;;3.50;;
65896;SDS011;52677;50.898;10.854;2022-10-17T07:12:08;5.35;;;4.00;;
65896;SDS011;52677;50.898;10.854;2022-10-17T07:14:08;4.47;;;3.42;;
65896;SDS011;52677;50.898;10.854;2022-10-17T07:16:08;5.57;;;3.20;;
65896;SDS011;52677;50.898;10.854;2022-10-17T07:18:09;5.30;;;3.08;;
65896;SDS011;52677;50.898;10.854;2022-10-17T07:20:10;6.63;;;3.38;;
65896;SDS011;52677;50.898;10.854;2022-10-17T07:22:11;7.28;;;3.40;;
65896;SDS011;52677;50.898;10.854;2022-10-17T07:24:12;4.30;;;3.05;;
65896;SDS011;52677;50.898;10.854;2022-10-17T07:26:13;5.70;;;3.50;;
65896;SDS011;52677;50.898;10.854;2022-10-17T07:28:15;7.20;;;3.75;;
65896;SDS011;52677;50.898;10.854;2022-10-17T07:30:15;4.93;;;3.83;;
65896;SDS011;52677;50.898;10.854;2022-10-17T07:32:16;8.50;;;5.85;;
65896;SDS011;52677;50.898;10.854;2022-10-17T07:34:17;23.55;;;5.63;;
65896;SDS011;52677;50.898;10.854;2022-10-17T07:36:17;8.20;;;6.70;;
65896;SDS011;52677;50.898;10.854;2022-10-17T07:38:18;14.32;;;7.82;;
65896;SDS011;52677;50.898;10.854;2022-10-17T07:40:18;9.40;;;6.90;;
65896;SDS011;52677;50.898;10.854;2022-10-17T07:42:18;16.13;;;7.47;;
65896;SDS011;52677;50.898;10.854;2022-10-17T07:44:19;12.68;;;8.20;;
65896;SDS011;52677;50.898;10.854;2022-10-17T07:46:19;10.65;;;6.05;;
65896;SDS011;52677;50.898;10.854;2022-10-17T07:48:20;9.80;;;5.00;;
65896;SDS011;52677;50.898;10.854;2022-10-17T07:50:22;6.50;;;4.18;;
65896;SDS011;52677;50.898;10.854;2022-10-17T07:52:22;10.48;;;5.80;;
65896;SDS011;52677;50.898;10.854;2022-10-17T07:54:22;8.65;;;5.03;;
65896;SDS011;52677;50.898;10.854;2022-10-17T07:56:23;8.52;;;5.10;;
65896;SDS011;52677;50.898;10.854;2022-10-17T07:58:23;5.78;;;4.18;;
65896;SDS011;52677;50.898;10.854;2022-10-17T08:00:25;6.53;;;4.03;;
65896;SDS011;52677;50.898;10.854;2022-10-17T08:02:26;6.78;;;4.13;;
65896;SDS011;52677;50.898;10.854;2022-10-17T08:04:26;5.68;;;3.90;;
65896;SDS011;52677;50.898;10.854;2022-10-17T08:06:27;6.15;;;3.95;;
65896;SDS011;52677;50.898;10.854;2022-10-17T08:08:27;5.38;;;3.70;;
65896;SDS011;52677;50.898;10.854;2022-10-17T08:10:28;5.78;;;3.50;;
65896;SDS011;52677;50.898;10.854;2022-10-17T08:12:28;5.03;;;2.90;;
65896;SDS011;52677;50.898;10.854;2022-10-17T08:14:31;6.22;;;4.38;;
65896;SDS011;52677;50.898;10.854;2022-10-17T08:16:31;4.78;;;3.25;;
65896;SDS011;52677;50.898;10.854;2022-10-17T08:18:32;6.05;;;3.30;;
65896;SDS011;52677;50.898;10.854;2022-10-17T08:20:33;6.70;;;3.47;;
65896;SDS011;52677;50.898;10.854;2022-10-17T08:22:34;5.45;;;3.40;;
65896;SDS011;52677;50.898;10.854;2022-10-17T08:24:34;5.95;;;3.60;;
65896;SDS011;52677;50.898;10.854;2022-10-17T08:26:34;3.83;;;2.80;;
65896;SDS011;52677;50.898;10.854;2022-10-17T08:28:35;3.60;;;2.95;;
65896;SDS011;52677;50.898;10.854;2022-10-17T08:30:37;3.95;;;3.00;;
65896;SDS011;52677;50.898;10.854;2022-10-17T08:32:37;5.40;;;3.20;;
65896;SDS011;52677;50.898;10.854;2022-10-17T08:34:37;6.95;;;3.30;;
65896;SDS011;52677;50.898;10.854;2022-10-17T08:36:37;7.97;;;2.83;;
65896;SDS011;52677;50.898;10.854;2022-10-17T08:38:38;5.82;;;3.17;;
65896;SDS011;52677;50.898;10.854;2022-10-17T08:40:40;4.95;;;2.95;;
65896;SDS011;52677;50.898;10.854;2022-10-17T08:42:50;5.95;;;3.05;;
65896;SDS011;52677;50.898;10.854;2022-10-17T08:47:55;7.43;;;3.35;;
65896;SDS011;52677;50.898;10.854;2022-10-17T08:49:59;6.97;;;3.58;;
65896;SDS011;52677;50.898;10.854;2022-10-17T08:52:04;5.20;;;3.03;;
65896;SDS011;52677;50.898;10.854;2022-10-17T08:54:19;10.88;;;6.18;;
65896;SDS011;52677;50.898;10.854;2022-10-17T08:56:25;9.05;;;6.45;;
65896;SDS011;52677;50.898;10.854;2022-10-17T08:58:33;11.45;;;5.55;;
65896;SDS011;52677;50.898;10.854;2022-10-17T09:00:35;8.95;;;5.45;;
65896;SDS011;52677;50.898;10.854;2022-10-17T09:02:38;4.60;;;3.13;;
65896;SDS011;52677;50.898;10.854;2022-10-17T09:09:22;7.43;;;4.55;;
65896;SDS011;52677;50.898;10.854;2022-10-17T09:11:39;5.32;;;4.35;;
65896;SDS011;52677;50.898;10.854;2022-10-17T09:13:48;7.03;;;3.53;;
65896;SDS011;52677;50.898;10.854;2022-10-17T09:18:25;3.85;;;2.90;;
65896;SDS011;52677;50.898;10.854;2022-10-17T09:20:39;4.32;;;3.00;;
65896;SDS011;52677;50.898;10.854;2022-10-17T09:24:52;6.15;;;2.78;;
65896;SDS011;52677;50.898;10.854;2022-10-17T09:26:56;3.67;;;2.70;;
65896;SDS011;52677;50.898;10.854;2022-10-17T09:28:57;2.78;;;2.15;;
65896;SDS011;52677;50.898;10.854;2022-10-17T09:31:03;5.97;;;2.50;;
65896;SDS011;52677;50.898;10.854;2022-10-17T09:33:14;3.00;;;2.70;;
65896;SDS011;52677;50.898;10.854;2022-10-17T09:35:27;4.60;;;2.35;;
65896;SDS011;52677;50.898;10.854;2022-10-17T09:37:29;4.22;;;2.40;;
65896;SDS011;52677;50.898;10.854;2022-10-17T09:39:31;2.83;;;2.45;;
65896;SDS011;52677;50.898;10.854;2022-10-17T09:43:38;3.33;;;2.33;;
65896;SDS011;52677;50.898;10.854;2022-10-17T09:45:40;3.83;;;2.20;;
65896;SDS011;52677;50.898;10.854;2022-10-17T09:47:59;3.50;;;2.22;;
65896;SDS011;52677;50.898;10.854;2022-10-17T09:50:13;6.35;;;2.30;;
65896;SDS011;52677;50.898;10.854;2022-10-17T09:54:52;4.65;;;2.08;;
65896;SDS011;52677;50.898;10.854;2022-10-17T09:56:58;3.33;;;1.92;;
65896;SDS011;52677;50.898;10.854;2022-10-17T09:59:00;6.63;;;2.30;;
65896;SDS011;52677;50.898;10.854;2022-10-17T10:01:13;3.88;;;2.28;;
65896;SDS011;52677;50.898;10.854;2022-10-17T10:03:23;3.95;;;1.90;;
65896;SDS011;52677;50.898;10.854;2022-10-17T10:05:25;5.35;;;1.90;;
65896;SDS011;52677;50.898;10.854;2022-10-17T10:07:26;3.50;;;2.20;;
65896;SDS011;52677;50.898;10.854;2022-10-17T10:09:32;4.90;;;2.08;;
65896;SDS011;52677;50.898;10.854;2022-10-17T10:11:45;3.55;;;1.98;;
65896;SDS011;52677;50.898;10.854;2022-10-17T10:13:48;6.55;;;2.38;;
65896;SDS011;52677;50.898;10.854;2022-10-17T10:15:49;3.60;;;2.28;;
65896;SDS011;52677;50.898;10.854;2022-10-17T10:17:49;4.32;;;2.10;;
65896;SDS011;52677;50.898;10.854;2022-10-17T10:19:50;4.80;;;2.05;;
65896;SDS011;52677;50.898;10.854;2022-10-17T10:21:58;4.38;;;1.70;;
65896;SDS011;52677;50.898;10.854;2022-10-17T10:24:01;5.20;;;2.05;;
65896;SDS011;52677;50.898;10.854;2022-10-17T10:26:16;4.03;;;2.05;;
65896;SDS011;52677;50.898;10.854;2022-10-17T10:28:22;7.18;;;1.88;;
65896;SDS011;52677;50.898;10.854;2022-10-17T10:30:29;3.92;;;1.88;;
65896;SDS011;52677;50.898;10.854;2022-10-17T10:32:31;5.18;;;1.83;;
65896;SDS011;52677;50.898;10.854;2022-10-17T10:34:33;3.92;;;2.40;;
65896;SDS011;52677;50.898;10.854;2022-10-17T10:36:42;3.00;;;2.17;;
65896;SDS011;52677;50.898;10.854;2022-10-17T10:38:49;4.45;;;2.30;;
65896;SDS011;52677;50.898;10.854;2022-10-17T10:40:53;5.72;;;2.45;;
65896;SDS011;52677;50.898;10.854;2022-10-17T10:42:56;3.58;;;2.60;;
65896;SDS011;52677;50.898;10.854;2022-10-17T10:45:41;4.28;;;2.53;;
65896;SDS011;52677;50.898;10.854;2022-10-17T10:47:24;4.68;;;2.10;;
65896;SDS011;52677;50.898;10.854;2022-10-17T10:49:30;5.43;;;2.28;;
65896;SDS011;52677;50.898;10.854;2022-10-17T10:51:33;2.70;;;2.00;;
65896;SDS011;52677;50.898;10.854;2022-10-17T10:53:59;5.35;;;2.10;;
65896;SDS011;52677;50.898;10.854;2022-10-17T10:56:27;8.35;;;2.25;;
65896;SDS011;52677;50.898;10.854;2022-10-17T11:00:52;5.07;;;1.73;;
65896;SDS011;52677;50.898;10.854;2022-10-17T11:05:35;2.28;;;1.77;;
65896;SDS011;52677;50.898;10.854;2022-10-17T11:09:57;4.07;;;1.95;;
65896;SDS011;52677;50.898;10.854;2022-10-17T11:12:00;9.93;;;2.95;;
65896;SDS011;52677;50.898;10.854;2022-10-17T11:14:14;4.22;;;1.98;;
65896;SDS011;52677;50.898;10.854;2022-10-17T11:16:20;3.83;;;1.90;;
65896;SDS011;52677;50.898;10.854;2022-10-17T11:18:39;2.85;;;1.60;;
65896;SDS011;52677;50.898;10.854;2022-10-17T11:21:05;4.57;;;1.95;;
65896;SDS011;52677;50.898;10.854;2022-10-17T11:23:16;4.72;;;2.13;;
65896;SDS011;52677;50.898;10.854;2022-10-17T11:25:30;3.67;;;2.00;;
65896;SDS011;52677;50.898;10.854;2022-10-17T11:27:38;3.13;;;1.75;;
65896;SDS011;52677;50.898;10.854;2022-10-17T11:29:39;4.20;;;1.65;;
65896;SDS011;52677;50.898;10.854;2022-10-17T11:31:43;3.95;;;1.60;;
65896;SDS011;52677;50.898;10.854;2022-10-17T11:34:01;2.38;;;1.58;;
65896;SDS011;52677;50.898;10.854;2022-10-17T11:36:07;4.63;;;2.05;;
65896;SDS011;52677;50.898;10.854;2022-10-17T11:40:21;2.20;;;1.50;;
65896;SDS011;52677;50.898;10.854;2022-10-17T11:42:30;8.27;;;1.77;;
65896;SDS011;52677;50.898;10.854;2022-10-17T11:44:37;5.10;;;1.70;;
65896;SDS011;52677;50.898;10.854;2022-10-17T11:46:39;3.25;;;1.85;;
65896;SDS011;52677;50.898;10.854;2022-10-17T11:48:44;2.50;;;1.75;;
65896;SDS011;52677;50.898;10.854;2022-10-17T11:50:48;3.10;;;1.70;;
65896;SDS011;52677;50.898;10.854;2022-10-17T11:55:24;3.10;;;1.80;;
65896;SDS011;52677;50.898;10.854;2022-10-17T11:57:34;5.18;;;1.80;;
65896;SDS011;52677;50.898;10.854;2022-10-17T12:02:21;4.07;;;1.70;;
65896;SDS011;52677;50.898;10.854;2022-10-17T12:09:09;3.45;;;1.92;;
65896;SDS011;52677;50.898;10.854;2022-10-17T12:15:40;3.53;;;1.85;;
65896;SDS011;52677;50.898;10.854;2022-10-17T12:17:44;3.88;;;1.73;;
65896;SDS011;52677;50.898;10.854;2022-10-17T12:19:45;2.67;;;1.77;;
65896;SDS011;52677;50.898;10.854;2022-10-17T12:21:52;3.95;;;1.85;;
65896;SDS011;52677;50.898;10.854;2022-10-17T12:24:24;2.95;;;1.95;;
65896;SDS011;52677;50.898;10.854;2022-10-17T12:26:31;4.18;;;1.80;;
65896;SDS011;52677;50.898;10.854;2022-10-17T12:30:48;5.63;;;2.00;;
65896;SDS011;52677;50.898;10.854;2022-10-17T12:32:58;2.75;;;1.77;;
65896;SDS011;52677;50.898;10.854;2022-10-17T12:35:13;6.55;;;1.88;;
65896;SDS011;52677;50.898;10.854;2022-10-17T12:39:42;3.88;;;1.90;;
65896;SDS011;52677;50.898;10.854;2022-10-17T12:43:44;4.40;;;1.92;;
65896;SDS011;52677;50.898;10.854;2022-10-17T12:47:47;6.65;;;2.10;;
65896;SDS011;52677;50.898;10.854;2022-10-17T12:49:48;4.10;;;2.10;;
65896;SDS011;52677;50.898;10.854;2022-10-17T12:54:15;5.07;;;2.05;;
65896;SDS011;52677;50.898;10.854;2022-10-17T12:56:16;3.10;;;1.90;;
65896;SDS011;52677;50.898;10.854;2022-10-17T12:58:19;3.03;;;1.85;;
65896;SDS011;52677;50.898;10.854;2022-10-17T13:02:42;7.03;;;2.20;;
65896;SDS011;52677;50.898;10.854;2022-10-17T13:04:43;4.13;;;1.95;;
65896;SDS011;52677;50.898;10.854;2022-10-17T13:06:47;2.90;;;2.10;;
65896;SDS011;52677;50.898;10.854;2022-10-17T13:08:55;5.90;;;2.40;;
65896;SDS011;52677;50.898;10.854;2022-10-17T13:11:00;2.70;;;1.80;;
65896;SDS011;52677;50.898;10.854;2022-10-17T13:13:48;4.32;;;2.13;;
65896;SDS011;52677;50.898;10.854;2022-10-17T13:15:25;3.40;;;1.90;;
65896;SDS011;52677;50.898;10.854;2022-10-17T13:17:28;2.00;;;1.65;;
65896;SDS011;52677;50.898;10.854;2022-10-17T13:19:42;4.55;;;1.95;;
65896;SDS011;52677;50.898;10.854;2022-10-17T13:23:52;6.13;;;1.98;;
65896;SDS011;52677;50.898;10.854;2022-10-17T13:28:11;2.88;;;1.88;;
65896;SDS011;52677;50.898;10.854;2022-10-17T13:30:34;2.80;;;2.03;;
65896;SDS011;52677;50.898;10.854;2022-10-17T13:32:35;3.38;;;1.80;;
65896;SDS011;52677;50.898;10.854;2022-10-17T13:34:37;6.68;;;2.00;;
65896;SDS011;52677;50.898;10.854;2022-10-17T13:36:37;3.17;;;1.80;;
65896;SDS011;52677;50.898;10.854;2022-10-17T13:38:38;3.28;;;1.70;;
65896;SDS011;52677;50.898;10.854;2022-10-17T13:40:41;6.10;;;1.70;;
65896;SDS011;52677;50.898;10.854;2022-10-17T13:42:43;7.88;;;2.00;;
65896;SDS011;52677;50.898;10.854;2022-10-17T13:44:43;3.08;;;1.60;;
65896;SDS011;52677;50.898;10.854;2022-10-17T13:46:45;3.97;;;2.00;;
65896;SDS011;52677;50.898;10.854;2022-10-17T13:48:45;4.03;;;1.90;;